<?xml version='1.0' encoding='UTF-8'?>
<gpx version="1.1" creator="https://www.komoot.de" xmlns="http://www.topografix.com/GPX/1/1" xmlns:xsi="http://www.w3.org/2001/XMLSchema-instance" xsi:schemaLocation="http://www.topografix.com/GPX/1/1 http://www.topografix.com/GPX/1/1/gpx.xsd">
  <metadata>
    <name>430 NDB Rainertshausen</name>
    <author>
      <link href="https://www.komoot.de">
        <text>komoot</text>
        <type>text/html</type>
      </link>
    </author>
  </metadata>
  <trk>
    <name>430 NDB Rainertshausen</name>
    <trkseg>
      <trkpt lat="48.629296" lon="11.904852">
        <ele>453.795263</ele>
        <time>2022-10-20T07:23:07.227Z</time>
      </trkpt>
      <trkpt lat="48.629419" lon="11.904988">
        <ele>453.795263</ele>
        <time>2022-10-20T07:23:22.564Z</time>
      </trkpt>
      <trkpt lat="48.629952" lon="11.905402">
        <ele>453.795263</ele>
        <time>2022-10-20T07:24:22.683Z</time>
      </trkpt>
      <trkpt lat="48.630099" lon="11.905503">
        <ele>453.834051</ele>
        <time>2022-10-20T07:24:39.324Z</time>
      </trkpt>
      <trkpt lat="48.630660" lon="11.905855">
        <ele>455.566277</ele>
        <time>2022-10-20T07:25:45.421Z</time>
      </trkpt>
      <trkpt lat="48.630389" lon="11.906688">
        <ele>457.316472</ele>
        <time>2022-10-20T07:26:54.730Z</time>
      </trkpt>
      <trkpt lat="48.630215" lon="11.907070">
        <ele>458.191026</ele>
        <time>2022-10-20T07:27:29.221Z</time>
      </trkpt>
      <trkpt lat="48.630169" lon="11.907148">
        <ele>458.388089</ele>
        <time>2022-10-20T07:27:36.913Z</time>
      </trkpt>
      <trkpt lat="48.630143" lon="11.907210">
        <ele>458.526505</ele>
        <time>2022-10-20T07:27:42.801Z</time>
      </trkpt>
      <trkpt lat="48.630032" lon="11.907471">
        <ele>459.094999</ele>
        <time>2022-10-20T07:28:05.270Z</time>
      </trkpt>
      <trkpt lat="48.629622" lon="11.907682">
        <ele>460.220238</ele>
        <time>2022-10-20T07:28:53.344Z</time>
      </trkpt>
      <trkpt lat="48.629626" lon="11.907969">
        <ele>460.713206</ele>
        <time>2022-10-20T07:29:15.022Z</time>
      </trkpt>
      <trkpt lat="48.629842" lon="11.908384">
        <ele>461.620333</ele>
        <time>2022-10-20T07:29:54.059Z</time>
      </trkpt>
      <trkpt lat="48.629935" lon="11.909047">
        <ele>462.784243</ele>
        <time>2022-10-20T07:30:42.709Z</time>
      </trkpt>
      <trkpt lat="48.629989" lon="11.909039">
        <ele>462.925222</ele>
        <time>2022-10-20T07:30:48.373Z</time>
      </trkpt>
      <trkpt lat="48.630172" lon="11.909010">
        <ele>463.403311</ele>
        <time>2022-10-20T07:31:07.591Z</time>
      </trkpt>
      <trkpt lat="48.630435" lon="11.908974">
        <ele>463.946416</ele>
        <time>2022-10-20T07:31:34.098Z</time>
      </trkpt>
      <trkpt lat="48.630785" lon="11.908949">
        <ele>464.591419</ele>
        <time>2022-10-20T07:32:09.698Z</time>
      </trkpt>
      <trkpt lat="48.631877" lon="11.909097">
        <ele>466.609636</ele>
        <time>2022-10-20T07:34:07.675Z</time>
      </trkpt>
      <trkpt lat="48.631965" lon="11.909062">
        <ele>466.777131</ele>
        <time>2022-10-20T07:34:17.013Z</time>
      </trkpt>
      <trkpt lat="48.632080" lon="11.909527">
        <ele>467.719014</ele>
        <time>2022-10-20T07:34:53.943Z</time>
      </trkpt>
      <trkpt lat="48.632222" lon="11.909857">
        <ele>468.541458</ele>
        <time>2022-10-20T07:35:22.894Z</time>
      </trkpt>
      <trkpt lat="48.632527" lon="11.910562">
        <ele>470.301319</ele>
        <time>2022-10-20T07:36:23.662Z</time>
      </trkpt>
      <trkpt lat="48.632663" lon="11.911299">
        <ele>471.899457</ele>
        <time>2022-10-20T07:37:19.656Z</time>
      </trkpt>
      <trkpt lat="48.632612" lon="11.911834">
        <ele>473.191148</ele>
        <time>2022-10-20T07:38:01.264Z</time>
      </trkpt>
      <trkpt lat="48.632210" lon="11.913490">
        <ele>478.255943</ele>
        <time>2022-10-20T07:40:15.691Z</time>
      </trkpt>
      <trkpt lat="48.632190" lon="11.913795">
        <ele>479.135872</ele>
        <time>2022-10-20T07:40:40.417Z</time>
      </trkpt>
      <trkpt lat="48.632433" lon="11.914877">
        <ele>481.580844</ele>
        <time>2022-10-20T07:42:07.047Z</time>
      </trkpt>
      <trkpt lat="48.632863" lon="11.918659">
        <ele>486.444721</ele>
        <time>2022-10-20T07:46:36.620Z</time>
      </trkpt>
      <trkpt lat="48.633065" lon="11.919195">
        <ele>486.945594</ele>
        <time>2022-10-20T07:47:17.959Z</time>
      </trkpt>
      <trkpt lat="48.633461" lon="11.919648">
        <ele>487.272575</ele>
        <time>2022-10-20T07:48:07.856Z</time>
      </trkpt>
      <trkpt lat="48.633595" lon="11.919895">
        <ele>487.336607</ele>
        <time>2022-10-20T07:48:29.148Z</time>
      </trkpt>
      <trkpt lat="48.633837" lon="11.920898">
        <ele>487.550554</ele>
        <time>2022-10-20T07:49:40.039Z</time>
      </trkpt>
      <trkpt lat="48.633935" lon="11.921537">
        <ele>487.681994</ele>
        <time>2022-10-20T07:50:23.752Z</time>
      </trkpt>
      <trkpt lat="48.634011" lon="11.921974">
        <ele>487.886351</ele>
        <time>2022-10-20T07:50:54.393Z</time>
      </trkpt>
      <trkpt lat="48.634357" lon="11.922306">
        <ele>488.309441</ele>
        <time>2022-10-20T07:51:36.733Z</time>
      </trkpt>
      <trkpt lat="48.634951" lon="11.922537">
        <ele>488.942787</ele>
        <time>2022-10-20T07:52:40.914Z</time>
      </trkpt>
      <trkpt lat="48.635260" lon="11.922560">
        <ele>489.262270</ele>
        <time>2022-10-20T07:53:13.199Z</time>
      </trkpt>
      <trkpt lat="48.635776" lon="11.922674">
        <ele>489.841886</ele>
        <time>2022-10-20T07:54:07.532Z</time>
      </trkpt>
      <trkpt lat="48.636037" lon="11.922739">
        <ele>490.166515</ele>
        <time>2022-10-20T07:54:35.149Z</time>
      </trkpt>
      <trkpt lat="48.636298" lon="11.922818">
        <ele>490.493180</ele>
        <time>2022-10-20T07:55:03.012Z</time>
      </trkpt>
      <trkpt lat="48.636414" lon="11.922945">
        <ele>490.668898</ele>
        <time>2022-10-20T07:55:18.184Z</time>
      </trkpt>
      <trkpt lat="48.636673" lon="11.923215">
        <ele>491.054889</ele>
        <time>2022-10-20T07:55:51.259Z</time>
      </trkpt>
      <trkpt lat="48.636932" lon="11.923370">
        <ele>491.396709</ele>
        <time>2022-10-20T07:56:20.339Z</time>
      </trkpt>
      <trkpt lat="48.637767" lon="11.924076">
        <ele>492.694019</ele>
        <time>2022-10-20T07:57:59.116Z</time>
      </trkpt>
      <trkpt lat="48.639128" lon="11.924784">
        <ele>494.817739</ele>
        <time>2022-10-20T08:00:31.725Z</time>
      </trkpt>
      <trkpt lat="48.639185" lon="11.924012">
        <ele>495.692434</ele>
        <time>2022-10-20T08:01:26.208Z</time>
      </trkpt>
      <trkpt lat="48.639203" lon="11.923894">
        <ele>495.828798</ele>
        <time>2022-10-20T08:01:34.690Z</time>
      </trkpt>
      <trkpt lat="48.639486" lon="11.922326">
        <ele>497.610255</ele>
        <time>2022-10-20T08:03:28.782Z</time>
      </trkpt>
      <trkpt lat="48.639625" lon="11.922089">
        <ele>497.896724</ele>
        <time>2022-10-20T08:03:51.233Z</time>
      </trkpt>
      <trkpt lat="48.639819" lon="11.921757">
        <ele>498.297370</ele>
        <time>2022-10-20T08:04:22.540Z</time>
      </trkpt>
      <trkpt lat="48.639939" lon="11.921328">
        <ele>498.718503</ele>
        <time>2022-10-20T08:04:54.954Z</time>
      </trkpt>
      <trkpt lat="48.639932" lon="11.920899">
        <ele>499.106438</ele>
        <time>2022-10-20T08:05:24.438Z</time>
      </trkpt>
      <trkpt lat="48.640003" lon="11.920545">
        <ele>499.440870</ele>
        <time>2022-10-20T08:05:49.926Z</time>
      </trkpt>
      <trkpt lat="48.640354" lon="11.920097">
        <ele>499.746444</ele>
        <time>2022-10-20T08:06:37.436Z</time>
      </trkpt>
      <trkpt lat="48.640428" lon="11.920019">
        <ele>499.667645</ele>
        <time>2022-10-20T08:06:46.966Z</time>
      </trkpt>
      <trkpt lat="48.640606" lon="11.919697">
        <ele>499.425248</ele>
        <time>2022-10-20T08:07:15.136Z</time>
      </trkpt>
      <trkpt lat="48.640882" lon="11.918442">
        <ele>498.661555</ele>
        <time>2022-10-20T08:08:44.028Z</time>
      </trkpt>
      <trkpt lat="48.641201" lon="11.918185">
        <ele>498.345779</ele>
        <time>2022-10-20T08:09:22.082Z</time>
      </trkpt>
      <trkpt lat="48.641456" lon="11.918067">
        <ele>497.352687</ele>
        <time>2022-10-20T08:09:50.654Z</time>
      </trkpt>
      <trkpt lat="48.641758" lon="11.918045">
        <ele>496.019017</ele>
        <time>2022-10-20T08:10:23.104Z</time>
      </trkpt>
      <trkpt lat="48.642016" lon="11.917959">
        <ele>494.853697</ele>
        <time>2022-10-20T08:10:51.575Z</time>
      </trkpt>
      <trkpt lat="48.642204" lon="11.918072">
        <ele>493.961417</ele>
        <time>2022-10-20T08:11:13.113Z</time>
      </trkpt>
      <trkpt lat="48.642289" lon="11.918249">
        <ele>493.323673</ele>
        <time>2022-10-20T08:11:28.846Z</time>
      </trkpt>
      <trkpt lat="48.642619" lon="11.917874">
        <ele>491.503377</ele>
        <time>2022-10-20T08:12:14.489Z</time>
      </trkpt>
      <trkpt lat="48.642853" lon="11.917176">
        <ele>487.993441</ele>
        <time>2022-10-20T08:13:13.390Z</time>
      </trkpt>
      <trkpt lat="48.642818" lon="11.916854">
        <ele>486.021322</ele>
        <time>2022-10-20T08:13:37.973Z</time>
      </trkpt>
      <trkpt lat="48.642839" lon="11.916457">
        <ele>483.614430</ele>
        <time>2022-10-20T08:14:08.206Z</time>
      </trkpt>
      <trkpt lat="48.642677" lon="11.915345">
        <ele>476.732794</ele>
        <time>2022-10-20T08:15:38.391Z</time>
      </trkpt>
      <trkpt lat="48.642874" lon="11.915116">
        <ele>474.460842</ele>
        <time>2022-10-20T08:16:09.346Z</time>
      </trkpt>
      <trkpt lat="48.643030" lon="11.914816">
        <ele>472.276480</ele>
        <time>2022-10-20T08:16:40.505Z</time>
      </trkpt>
      <trkpt lat="48.643183" lon="11.914292">
        <ele>469.055525</ele>
        <time>2022-10-20T08:17:27.061Z</time>
      </trkpt>
      <trkpt lat="48.643291" lon="11.913742">
        <ele>465.829566</ele>
        <time>2022-10-20T08:18:12.721Z</time>
      </trkpt>
      <trkpt lat="48.643314" lon="11.913647">
        <ele>465.260717</ele>
        <time>2022-10-20T08:18:20.721Z</time>
      </trkpt>
      <trkpt lat="48.643445" lon="11.913176">
        <ele>462.387551</ele>
        <time>2022-10-20T08:18:59.843Z</time>
      </trkpt>
      <trkpt lat="48.643402" lon="11.913133">
        <ele>461.949003</ele>
        <time>2022-10-20T08:19:05.639Z</time>
      </trkpt>
      <trkpt lat="48.643516" lon="11.912816">
        <ele>459.919843</ele>
        <time>2022-10-20T08:19:32.223Z</time>
      </trkpt>
      <trkpt lat="48.644380" lon="11.911534">
        <ele>458.102419</ele>
        <time>2022-10-20T08:21:38.916Z</time>
      </trkpt>
      <trkpt lat="48.645687" lon="11.909596">
        <ele>460.220717</ele>
        <time>2022-10-20T08:25:00.233Z</time>
      </trkpt>
      <trkpt lat="48.645941" lon="11.909296">
        <ele>460.954416</ele>
        <time>2022-10-20T08:25:35.174Z</time>
      </trkpt>
      <trkpt lat="48.646546" lon="11.908925">
        <ele>461.657737</ele>
        <time>2022-10-20T08:26:43.773Z</time>
      </trkpt>
      <trkpt lat="48.646682" lon="11.908689">
        <ele>461.514047</ele>
        <time>2022-10-20T08:27:04.772Z</time>
      </trkpt>
      <trkpt lat="48.646804" lon="11.908332">
        <ele>461.329626</ele>
        <time>2022-10-20T08:27:31.367Z</time>
      </trkpt>
      <trkpt lat="48.646626" lon="11.908121">
        <ele>461.172609</ele>
        <time>2022-10-20T08:27:54.339Z</time>
      </trkpt>
      <trkpt lat="48.646499" lon="11.908107">
        <ele>461.084176</ele>
        <time>2022-10-20T08:28:07.344Z</time>
      </trkpt>
      <trkpt lat="48.645612" lon="11.908116">
        <ele>459.979200</ele>
        <time>2022-10-20T08:29:39.599Z</time>
      </trkpt>
      <trkpt lat="48.645321" lon="11.908182">
        <ele>458.965707</ele>
        <time>2022-10-20T08:30:11.074Z</time>
      </trkpt>
      <trkpt lat="48.644783" lon="11.908304">
        <ele>457.091971</ele>
        <time>2022-10-20T08:31:09.914Z</time>
      </trkpt>
      <trkpt lat="48.643936" lon="11.908351">
        <ele>454.316920</ele>
        <time>2022-10-20T08:32:42.129Z</time>
      </trkpt>
      <trkpt lat="48.643046" lon="11.908327">
        <ele>453.226767</ele>
        <time>2022-10-20T08:34:15.878Z</time>
      </trkpt>
      <trkpt lat="48.642046" lon="11.908468">
        <ele>452.555613</ele>
        <time>2022-10-20T08:35:58.016Z</time>
      </trkpt>
      <trkpt lat="48.641932" lon="11.908390">
        <ele>452.837138</ele>
        <time>2022-10-20T08:36:11.385Z</time>
      </trkpt>
      <trkpt lat="48.641891" lon="11.908458">
        <ele>452.974013</ele>
        <time>2022-10-20T08:36:18.683Z</time>
      </trkpt>
      <trkpt lat="48.641669" lon="11.908537">
        <ele>453.487189</ele>
        <time>2022-10-20T08:36:42.451Z</time>
      </trkpt>
      <trkpt lat="48.641134" lon="11.908546">
        <ele>454.691141</ele>
        <time>2022-10-20T08:37:41.672Z</time>
      </trkpt>
      <trkpt lat="48.640416" lon="11.908294">
        <ele>456.286169</ele>
        <time>2022-10-20T08:39:03.402Z</time>
      </trkpt>
      <trkpt lat="48.639303" lon="11.908157">
        <ele>457.329057</ele>
        <time>2022-10-20T08:41:00.726Z</time>
      </trkpt>
      <trkpt lat="48.638057" lon="11.907895">
        <ele>456.928261</ele>
        <time>2022-10-20T08:43:07.859Z</time>
      </trkpt>
      <trkpt lat="48.637194" lon="11.907546">
        <ele>455.507859</ele>
        <time>2022-10-20T08:44:41.661Z</time>
      </trkpt>
      <trkpt lat="48.637035" lon="11.907541">
        <ele>455.254980</ele>
        <time>2022-10-20T08:44:58.057Z</time>
      </trkpt>
      <trkpt lat="48.636987" lon="11.907608">
        <ele>455.151144</ele>
        <time>2022-10-20T08:45:04.969Z</time>
      </trkpt>
      <trkpt lat="48.636967" lon="11.907735">
        <ele>455.008009</ele>
        <time>2022-10-20T08:45:14.429Z</time>
      </trkpt>
      <trkpt lat="48.636407" lon="11.911420">
        <ele>451.114206</ele>
        <time>2022-10-20T08:49:33.173Z</time>
      </trkpt>
      <trkpt lat="48.636324" lon="11.911364">
        <ele>451.024014</ele>
        <time>2022-10-20T08:49:42.391Z</time>
      </trkpt>
      <trkpt lat="48.636011" lon="11.911153">
        <ele>450.683942</ele>
        <time>2022-10-20T08:50:17.163Z</time>
      </trkpt>
      <trkpt lat="48.635007" lon="11.910729">
        <ele>450.142183</ele>
        <time>2022-10-20T08:52:02.630Z</time>
      </trkpt>
      <trkpt lat="48.633990" lon="11.910016">
        <ele>450.387298</ele>
        <time>2022-10-20T08:53:55.757Z</time>
      </trkpt>
      <trkpt lat="48.633309" lon="11.909337">
        <ele>450.915273</ele>
        <time>2022-10-20T08:55:20.362Z</time>
      </trkpt>
      <trkpt lat="48.632850" lon="11.908824">
        <ele>451.406396</ele>
        <time>2022-10-20T08:56:19.460Z</time>
      </trkpt>
      <trkpt lat="48.632663" lon="11.908708">
        <ele>451.580339</ele>
        <time>2022-10-20T08:56:40.296Z</time>
      </trkpt>
      <trkpt lat="48.632154" lon="11.908387">
        <ele>452.011636</ele>
        <time>2022-10-20T08:57:37.074Z</time>
      </trkpt>
      <trkpt lat="48.631862" lon="11.907965">
        <ele>452.109856</ele>
        <time>2022-10-20T08:58:18.565Z</time>
      </trkpt>
      <trkpt lat="48.631690" lon="11.907535">
        <ele>452.190659</ele>
        <time>2022-10-20T08:58:52.285Z</time>
      </trkpt>
      <trkpt lat="48.631406" lon="11.906671">
        <ele>452.345787</ele>
        <time>2022-10-20T08:59:56.244Z</time>
      </trkpt>
      <trkpt lat="48.631183" lon="11.906306">
        <ele>452.425696</ele>
        <time>2022-10-20T09:00:29.333Z</time>
      </trkpt>
      <trkpt lat="48.630871" lon="11.906001">
        <ele>452.432087</ele>
        <time>2022-10-20T09:01:06.694Z</time>
      </trkpt>
      <trkpt lat="48.630660" lon="11.905855">
        <ele>452.432087</ele>
        <time>2022-10-20T09:01:30.276Z</time>
      </trkpt>
      <trkpt lat="48.630099" lon="11.905503">
        <ele>452.432087</ele>
        <time>2022-10-20T09:02:32.177Z</time>
      </trkpt>
      <trkpt lat="48.629952" lon="11.905402">
        <ele>452.432087</ele>
        <time>2022-10-20T09:02:48.659Z</time>
      </trkpt>
      <trkpt lat="48.629419" lon="11.904988">
        <ele>452.432087</ele>
        <time>2022-10-20T09:03:49.618Z</time>
      </trkpt>
      <trkpt lat="48.629296" lon="11.904852">
        <ele>452.432087</ele>
        <time>2022-10-20T09:04:05.039Z</time>
      </trkpt>
      <trkpt lat="48.629225" lon="11.904773">
        <ele>452.432087</ele>
        <time>2022-10-20T09:04:14.009Z</time>
      </trkpt>
    </trkseg>
  </trk>
</gpx>